Main page
METAR-TAF:

METAR-TAF

Airports :

RAF Scampton

Scampton, England

latitude: 53-18-27N, longitude: 000-33-03W, elevation: 62 m

Current weather observation

The report was made 52 minutes ago, at 03:50 UTC
Wind 5 kt from the West
Temperature 15°C
Humidity 82%
Pressure 1014 hPa
Visibility 10 km or more

METAR: EGXP 220350Z AUTO 26005KT 9999 // OVC060/// 15/12 Q1014

Time: 05:42 (04:42 UTC)


TAF: missing

Weather observations and forecasts of more than 4000 airports (METAR and TAF reports).

The available stations are represented by yellow and red dots on the map.

Hover mouse over dot to see the name of the station.

Then click to see weather observations and forecasts.

To change the map : click on the green buttons with a black cross to zoom in, on the green button with a dash to zoom out, or on the green arrows for adjacent maps.


METAR-TAF: